Time;durP1;ratioP1;P1;durP2;ratioP2;P2;SDS_P1;SDS_P2;PMS_P1;PMS_P2;Temp;Humidity;BMP_temperature;BMP_pressure;BME280_temperature;BME280_humidity;BME280_pressure;Samples;Min_cycle;Max_cycle;Signal;HPM_P1;HPM_P2
2022/08/15 00:00:44;;;;;;;0.30;0.30;;;21.90;1.00;;;;;;5062832;28;20531;-77
2022/08/15 00:03:29;;;;;;;0.30;0.30;;;21.90;1.00;;;;;;5056949;28;20213;-76
2022/08/15 00:06:00;;;;;;;0.30;0.30;;;21.90;1.00;;;;;;5064606;28;20602;-76
2022/08/15 00:08:28;;;;;;;0.30;0.30;;;22.00;1.00;;;;;;5053719;28;20550;-77
2022/08/15 00:11:08;;;;;;;0.37;0.37;;;22.00;1.00;;;;;;5069495;28;20174;-77
2022/08/15 00:13:35;;;;;;;0.30;0.30;;;21.90;1.00;;;;;;5057339;28;20214;-76
2022/08/15 00:16:01;;;;;;;0.30;0.30;;;21.80;99.90;;;;;;5054015;28;20264;-76
2022/08/15 00:18:28;;;;;;;0.30;0.30;;;21.60;1.00;;;;;;5066455;28;20217;-76
2022/08/15 00:20:53;;;;;;;0.30;0.30;;;21.40;8.50;;;;;;5056205;28;20179;-76
2022/08/15 00:23:22;;;;;;;0.40;0.40;;;21.40;1.00;;;;;;5053640;28;20237;-75
2022/08/15 00:25:50;;;;;;;0.37;0.37;;;21.20;1.00;;;;;;5060724;28;20190;-76
2022/08/15 00:28:16;;;;;;;0.40;0.40;;;21.10;1.00;;;;;;5062333;28;20221;-76
2022/08/15 00:30:44;;;;;;;0.30;0.30;;;20.90;1.00;;;;;;5052958;28;20664;-76
2022/08/15 00:33:10;;;;;;;0.40;0.40;;;20.70;1.00;;;;;;5058499;28;20203;-76
2022/08/15 00:35:36;;;;;;;0.30;0.30;;;20.80;28.80;;;;;;5068301;28;20297;-76
2022/08/15 00:38:07;;;;;;;0.30;0.30;;;20.80;1.00;;;;;;5053322;28;20594;-76
2022/08/15 00:43:24;;;;;;;0.30;0.30;;;20.60;1.00;;;;;;5041453;28;20209;-76
2022/08/15 00:45:51;;;;;;;0.30;0.30;;;20.70;1.00;;;;;;5066199;28;20175;-76
2022/08/15 00:51:05;;;;;;;0.30;0.30;;;20.60;1.00;;;;;;5056281;28;20241;-75
2022/08/15 00:53:31;;;;;;;0.40;0.40;;;20.60;1.00;;;;;;5070926;28;20639;-76
2022/08/15 00:55:57;;;;;;;0.40;0.40;;;20.70;1.00;;;;;;5065752;28;20182;-77
2022/08/15 00:58:23;;;;;;;0.40;0.40;;;20.70;99.90;;;;;;5063867;28;20178;-76
2022/08/15 01:01:42;;;;;;;0.40;0.40;;;20.50;99.90;;;;;;5059863;28;20183;-76
2022/08/15 01:04:11;;;;;;;0.40;0.40;;;20.50;1.00;;;;;;5050946;28;20206;-76
2022/08/15 01:06:37;;;;;;;0.30;0.30;;;20.40;99.90;;;;;;5060356;28;20176;-76
2022/08/15 01:09:05;;;;;;;0.40;0.40;;;20.30;99.90;;;;;;5053319;28;20207;-76
2022/08/15 01:11:36;;;;;;;0.43;0.43;;;20.30;1.00;;;;;;5054828;28;20187;-76
2022/08/15 01:14:06;;;;;;;0.43;0.43;;;20.50;1.00;;;;;;5060411;28;20696;-75
2022/08/15 01:16:34;;;;;;;0.40;0.40;;;20.50;1.00;;;;;;5074421;28;20183;-76
2022/08/15 01:19:10;;;;;;;0.40;0.40;;;20.50;1.00;;;;;;5058241;28;20218;-76
2022/08/15 01:21:44;;;;;;;0.40;0.40;;;20.50;99.90;;;;;;5073275;28;20584;-76
2022/08/15 01:24:25;;;;;;;0.40;0.40;;;20.50;99.90;;;;;;5060260;28;20230;-76
2022/08/15 01:26:51;;;;;;;0.30;0.30;;;20.60;99.90;;;;;;5056902;28;20182;-75
2022/08/15 01:29:18;;;;;;;0.30;0.30;;;20.50;1.00;;;;;;5057348;28;20578;-76
2022/08/15 01:31:45;;;;;;;0.40;0.40;;;20.50;1.00;;;;;;5067550;28;20465;-76
2022/08/15 01:34:11;;;;;;;0.37;0.37;;;20.40;99.90;;;;;;5059434;28;20223;-77
2022/08/15 01:36:36;;;;;;;0.40;0.40;;;20.40;99.90;;;;;;5063528;28;20231;-77
2022/08/15 01:39:14;;;;;;;0.40;0.40;;;20.40;1.00;;;;;;5068484;28;20186;-76
2022/08/15 01:41:55;;;;;;;0.30;0.30;;;20.50;1.00;;;;;;5062193;28;20181;-76
2022/08/15 01:44:45;;;;;;;0.30;0.30;;;20.30;1.00;;;;;;5058369;28;20255;-76
2022/08/15 01:47:14;;;;;;;0.30;0.30;;;20.20;1.00;;;;;;5052468;28;20282;-76
2022/08/15 01:49:49;;;;;;;0.20;0.20;;;20.20;1.00;;;;;;5063317;28;20198;-75
2022/08/15 01:52:17;;;;;;;0.30;0.30;;;20.20;1.00;;;;;;5064176;28;20202;-76
2022/08/15 01:54:44;;;;;;;0.20;0.20;;;19.90;1.00;;;;;;5072470;28;20203;-76
2022/08/15 01:57:11;;;;;;;0.30;0.30;;;19.90;1.00;;;;;;5068001;28;20249;-76
2022/08/15 01:59:37;;;;;;;0.40;0.40;;;19.90;1.00;;;;;;5075876;28;20178;-77
2022/08/15 02:02:08;;;;;;;0.30;0.30;;;19.90;1.00;;;;;;5152160;23;20296;-80
2022/08/15 02:04:39;;;;;;;0.30;0.30;;;20.00;99.90;;;;;;5038461;28;20607;-78
2022/08/15 02:07:18;;;;;;;0.40;0.40;;;20.10;99.90;;;;;;5039492;28;20182;-79
2022/08/15 02:09:48;;;;;;;0.30;0.30;;;20.10;99.90;;;;;;5038551;28;20203;-80
2022/08/15 02:12:17;;;;;;;0.37;0.37;;;20.10;1.00;;;;;;5039274;28;20222;-79
2022/08/15 02:14:42;;;;;;;0.30;0.30;;;20.20;1.00;;;;;;5040415;28;20626;-78
2022/08/15 02:17:09;;;;;;;0.33;0.33;;;20.20;1.00;;;;;;5039460;28;20184;-78
2022/08/15 02:19:37;;;;;;;0.30;0.30;;;20.20;1.00;;;;;;5035768;28;20271;-78
2022/08/15 02:22:05;;;;;;;0.40;0.40;;;20.30;99.90;;;;;;5034926;28;20176;-77
2022/08/15 02:24:30;;;;;;;0.30;0.30;;;20.40;99.90;;;;;;5036471;28;20218;-78
2022/08/15 02:26:56;;;;;;;0.40;0.40;;;20.40;99.90;;;;;;5036250;28;20178;-78
2022/08/15 02:29:26;;;;;;;0.30;0.30;;;20.50;1.00;;;;;;5036027;28;20273;-78
2022/08/15 02:31:54;;;;;;;0.40;0.40;;;20.50;99.90;;;;;;5037231;28;20241;-78
2022/08/15 02:34:20;;;;;;;0.30;0.30;;;20.50;1.00;;;;;;5035973;28;20583;-78
2022/08/15 02:36:48;;;;;;;0.30;0.30;;;20.40;1.00;;;;;;5036401;28;20176;-77
2022/08/15 02:39:14;;;;;;;0.30;0.30;;;20.50;1.00;;;;;;5037213;28;20195;-78
2022/08/15 02:41:50;;;;;;;0.30;0.30;;;20.40;1.00;;;;;;5036792;28;20185;-77
2022/08/15 02:44:16;;;;;;;0.30;0.30;;;20.40;1.00;;;;;;5035813;28;20202;-78
2022/08/15 02:46:43;;;;;;;0.40;0.40;;;20.30;99.90;;;;;;5036027;28;20187;-77
2022/08/15 02:49:12;;;;;;;0.30;0.30;;;20.30;99.90;;;;;;5032447;28;20176;-77
2022/08/15 02:51:40;;;;;;;0.30;0.30;;;20.20;99.90;;;;;;5032819;28;20195;-77
2022/08/15 02:54:07;;;;;;;0.37;0.37;;;20.10;99.90;;;;;;5033023;28;20215;-77
2022/08/15 02:56:33;;;;;;;0.40;0.40;;;20.20;99.90;;;;;;5030863;28;20186;-77
2022/08/15 02:58:59;;;;;;;0.30;0.30;;;20.20;99.90;;;;;;5035068;28;20556;-77
2022/08/15 03:01:27;;;;;;;0.40;0.40;;;20.30;1.00;;;;;;5034755;28;20728;-77
2022/08/15 03:03:54;;;;;;;0.30;0.30;;;20.30;1.00;;;;;;5036094;28;20247;-78
2022/08/15 03:06:24;;;;;;;0.30;0.30;;;20.30;1.00;;;;;;5038443;28;20179;-77
2022/08/15 03:08:51;;;;;;;0.30;0.30;;;20.20;1.00;;;;;;5041818;28;20230;-77
2022/08/15 03:11:17;;;;;;;0.30;0.30;;;20.30;1.00;;;;;;5044070;28;20246;-77
2022/08/15 03:13:43;;;;;;;0.30;0.30;;;20.20;1.00;;;;;;5044757;28;20215;-77
2022/08/15 03:16:11;;;;;;;0.37;0.37;;;20.20;1.00;;;;;;5043685;28;20184;-77
2022/08/15 03:18:41;;;;;;;0.40;0.40;;;20.20;1.00;;;;;;5044185;28;20172;-77
2022/08/15 03:21:11;;;;;;;0.30;0.30;;;20.30;1.00;;;;;;5034673;28;20242;-77
2022/08/15 03:23:38;;;;;;;0.30;0.30;;;20.30;1.00;;;;;;5032963;28;20206;-76
2022/08/15 03:26:04;;;;;;;0.20;0.20;;;20.30;1.00;;;;;;5036248;28;20188;-77
2022/08/15 03:28:32;;;;;;;0.40;0.40;;;20.30;99.90;;;;;;5036844;28;20179;-76
2022/08/15 03:31:02;;;;;;;0.30;0.30;;;20.20;99.90;;;;;;5037643;28;20187;-77
2022/08/15 03:33:31;;;;;;;0.30;0.30;;;20.30;99.90;;;;;;5037382;28;20220;-77
2022/08/15 03:35:56;;;;;;;0.40;0.40;;;20.30;1.00;;;;;;5037653;28;20191;-77
2022/08/15 03:38:22;;;;;;;0.30;0.30;;;20.30;1.00;;;;;;5036680;28;20176;-77
2022/08/15 03:40:50;;;;;;;0.40;0.40;;;20.20;99.90;;;;;;5034993;28;20192;-77
2022/08/15 03:43:19;;;;;;;0.30;0.30;;;20.10;1.00;;;;;;5035593;28;20195;-76
2022/08/15 03:46:04;;;;;;;0.30;0.30;;;20.20;1.00;;;;;;5034994;28;20451;-76
2022/08/15 03:48:39;;;;;;;0.30;0.30;;;20.20;1.00;;;;;;5019766;28;20532;-76
2022/08/15 03:51:08;;;;;;;0.40;0.40;;;20.10;1.00;;;;;;5034185;28;20183;-76
2022/08/15 03:53:37;;;;;;;0.30;0.30;;;20.00;1.00;;;;;;5034346;28;20207;-77
2022/08/15 03:56:04;;;;;;;0.30;0.30;;;20.10;2.70;;;;;;5034383;28;20184;-76
2022/08/15 03:58:31;;;;;;;0.30;0.30;;;20.10;1.00;;;;;;5034290;28;20168;-76
2022/08/15 04:00:58;;;;;;;0.30;0.30;;;20.00;1.00;;;;;;5026654;28;20227;-75
2022/08/15 04:03:26;;;;;;;0.30;0.30;;;20.00;1.00;;;;;;5026517;28;20688;-75
2022/08/15 04:05:57;;;;;;;0.30;0.30;;;20.00;1.00;;;;;;5033729;28;20172;-76
2022/08/15 04:08:25;;;;;;;0.30;0.30;;;19.90;92.80;;;;;;5016516;28;20268;-77
2022/08/15 04:10:52;;;;;;;0.30;0.30;;;19.90;99.90;;;;;;5015539;28;20230;-76
2022/08/15 04:13:24;;;;;;;0.30;0.30;;;19.90;99.90;;;;;;5033837;28;20208;-76
2022/08/15 04:15:58;;;;;;;0.30;0.30;;;19.90;99.90;;;;;;5034295;28;20266;-76
2022/08/15 04:18:24;;;;;;;0.40;0.40;;;19.90;99.90;;;;;;5033252;28;20211;-77
2022/08/15 04:20:59;;;;;;;0.30;0.30;;;19.80;99.90;;;;;;5033986;28;20179;-76
2022/08/15 04:23:25;;;;;;;0.40;0.40;;;19.90;99.90;;;;;;5034914;28;20206;-77
2022/08/15 04:25:51;;;;;;;0.30;0.30;;;19.80;99.90;;;;;;5035275;28;20763;-79
2022/08/15 04:28:18;;;;;;;0.30;0.30;;;19.80;99.90;;;;;;5037650;28;20175;-75
2022/08/15 04:30:46;;;;;;;0.30;0.30;;;19.80;99.90;;;;;;5033622;28;20187;-76
2022/08/15 04:33:28;;;;;;;0.30;0.30;;;19.80;99.90;;;;;;5033601;28;20688;-76
2022/08/15 04:35:59;;;;;;;0.40;0.40;;;19.70;99.90;;;;;;5033794;28;20179;-76
2022/08/15 04:38:25;;;;;;;0.30;0.30;;;19.70;99.90;;;;;;5033441;28;20237;-77
2022/08/15 04:40:51;;;;;;;0.33;0.33;;;19.80;99.90;;;;;;5033167;28;20180;-76
2022/08/15 04:43:19;;;;;;;0.30;0.30;;;19.80;99.90;;;;;;5032096;28;20199;-76
2022/08/15 04:45:44;;;;;;;0.30;0.30;;;19.70;99.90;;;;;;5032871;28;20172;-76
2022/08/15 04:48:14;;;;;;;0.40;0.40;;;19.70;99.90;;;;;;5034354;28;20179;-76
2022/08/15 04:50:41;;;;;;;0.40;0.40;;;19.70;99.90;;;;;;5033081;28;20563;-76
2022/08/15 04:53:07;;;;;;;0.40;0.40;;;19.70;99.90;;;;;;5032957;28;20568;-77
2022/08/15 04:55:33;;;;;;;0.40;0.40;;;19.70;99.90;;;;;;5033702;28;20212;-76
2022/08/15 04:57:59;;;;;;;0.40;0.40;;;19.70;99.90;;;;;;5030564;28;20194;-77
2022/08/15 05:00:29;;;;;;;0.40;0.40;;;19.70;99.90;;;;;;5029524;28;20184;-75
2022/08/15 05:02:59;;;;;;;0.37;0.37;;;19.70;21.20;;;;;;5030399;28;20238;-76
2022/08/15 05:05:25;;;;;;;0.30;0.30;;;19.70;1.00;;;;;;5032865;28;20207;-76
2022/08/15 05:07:50;;;;;;;0.30;0.30;;;19.70;99.90;;;;;;5032773;28;20226;-76
2022/08/15 05:10:16;;;;;;;0.40;0.40;;;19.70;29.90;;;;;;5032895;28;20179;-76
2022/08/15 05:12:42;;;;;;;0.40;0.40;;;19.60;93.80;;;;;;5031666;28;20286;-75
2022/08/15 05:15:09;;;;;;;0.50;0.50;;;19.70;24.70;;;;;;5033125;28;20223;-76
2022/08/15 05:17:34;;;;;;;0.30;0.30;;;19.70;1.00;;;;;;5033653;28;20176;-76
2022/08/15 05:20:00;;;;;;;0.40;0.40;;;19.60;1.00;;;;;;5032836;28;20678;-76
2022/08/15 05:22:25;;;;;;;0.30;0.30;;;19.60;21.60;;;;;;5033497;28;20200;-76
2022/08/15 05:24:51;;;;;;;0.40;0.40;;;19.70;1.00;;;;;;5013798;28;20235;-75
2022/08/15 05:27:17;;;;;;;0.30;0.30;;;19.70;1.00;;;;;;5014620;28;20173;-77
2022/08/15 05:29:42;;;;;;;0.40;0.40;;;19.60;1.00;;;;;;5014546;28;20751;-77
2022/08/15 05:32:09;;;;;;;0.40;0.40;;;19.60;1.00;;;;;;5014700;28;20212;-78
2022/08/15 05:34:34;;;;;;;0.50;0.50;;;19.70;1.00;;;;;;5026137;28;20258;-78
2022/08/15 05:37:02;;;;;;;0.30;0.30;;;19.70;1.00;;;;;;5032881;28;20184;-77
2022/08/15 05:39:30;;;;;;;0.40;0.40;;;19.80;1.00;;;;;;5035790;28;20184;-77
2022/08/15 05:42:18;;;;;;;0.30;0.30;;;19.80;99.90;;;;;;5039273;28;20551;-77
2022/08/15 05:44:46;;;;;;;0.40;0.40;;;19.90;99.90;;;;;;5027631;28;20187;-77
2022/08/15 05:47:16;;;;;;;0.50;0.50;;;19.80;1.00;;;;;;5033511;28;20198;-78
2022/08/15 05:49:53;;;;;;;0.40;0.40;;;19.80;1.00;;;;;;5032289;28;20539;-77
2022/08/15 05:52:41;;;;;;;0.40;0.40;;;19.90;1.90;;;;;;5033021;28;20279;-77
2022/08/15 05:55:38;;;;;;;0.30;0.30;;;20.00;1.00;;;;;;5025364;28;20307;-75
2022/08/15 05:58:28;;;;;;;0.40;0.40;;;20.00;1.00;;;;;;5034916;28;20176;-75
2022/08/15 06:01:03;;;;;;;0.40;0.40;;;19.90;1.00;;;;;;5030818;28;20290;-76
2022/08/15 06:03:30;;;;;;;0.50;0.50;;;19.90;1.00;;;;;;5028176;28;20214;-77
2022/08/15 06:06:04;;;;;;;0.43;0.43;;;19.90;99.90;;;;;;5032849;28;20186;-76
2022/08/15 06:08:35;;;;;;;0.30;0.30;;;19.90;99.90;;;;;;5031594;28;20258;-76
2022/08/15 06:11:10;;;;;;;0.40;0.40;;;19.90;1.00;;;;;;5035816;28;20253;-76
2022/08/15 06:13:45;;;;;;;0.30;0.30;;;19.90;1.00;;;;;;5032344;28;20214;-76
2022/08/15 06:16:27;;;;;;;0.30;0.30;;;19.80;1.00;;;;;;5045699;28;20290;-76
2022/08/15 06:18:55;;;;;;;0.30;0.30;;;19.90;1.00;;;;;;5031531;28;20259;-77
2022/08/15 06:21:40;;;;;;;0.30;0.30;;;19.80;1.00;;;;;;5032546;28;20188;-76
2022/08/15 06:24:34;;;;;;;0.40;0.40;;;19.80;1.00;;;;;;5030734;28;20577;-76
2022/08/15 06:27:34;;;;;;;0.30;0.30;;;19.80;1.00;;;;;;5031576;28;20196;-76
2022/08/15 06:30:26;;;;;;;0.30;0.30;;;19.80;1.00;;;;;;5029912;28;20278;-77
2022/08/15 06:33:10;;;;;;;0.40;0.40;;;19.90;1.00;;;;;;5026359;28;20257;-76
2022/08/15 06:36:17;;;;;;;0.40;0.40;;;19.90;1.00;;;;;;5031324;28;20247;-76
2022/08/15 06:38:54;;;;;;;0.30;0.30;;;19.90;1.00;;;;;;4974325;28;20191;-77
2022/08/15 06:41:33;;;;;;;0.30;0.30;;;20.00;1.00;;;;;;5030328;28;20621;-76
2022/08/15 06:44:00;;;;;;;0.30;0.30;;;20.00;99.90;;;;;;5027987;28;20215;-76
2022/08/15 06:46:30;;;;;;;0.30;0.30;;;20.10;99.90;;;;;;5028288;28;20211;-76
2022/08/15 06:48:59;;;;;;;0.43;0.43;;;20.20;99.90;;;;;;5030116;28;20188;-76
2022/08/15 06:51:24;;;;;;;0.30;0.30;;;20.20;1.00;;;;;;5029109;28;20192;-76
2022/08/15 06:53:54;;;;;;;0.30;0.30;;;20.30;99.90;;;;;;5028170;28;20636;-76
2022/08/15 06:56:45;;;;;;;0.40;0.40;;;20.60;1.00;;;;;;5030469;28;20180;-76
2022/08/15 06:59:28;;;;;;;0.40;0.40;;;21.30;80.80;;;;;;5029922;28;20191;-76
2022/08/15 07:02:18;;;;;;;0.30;0.30;;;21.60;1.00;;;;;;5027237;28;20800;-76
2022/08/15 07:05:02;;;;;;;0.30;0.30;;;21.70;1.00;;;;;;5026193;28;21463;-76
2022/08/15 07:07:40;;;;;;;0.30;0.30;;;22.10;1.00;;;;;;5029105;28;20179;-75
2022/08/15 07:10:44;;;;;;;0.37;0.37;;;22.10;99.90;;;;;;5028232;28;20186;-77
2022/08/15 07:13:14;;;;;;;0.30;0.30;;;22.00;99.90;;;;;;5029101;28;20203;-76
2022/08/15 07:15:56;;;;;;;0.30;0.30;;;22.50;99.90;;;;;;5031266;28;20235;-76
2022/08/15 07:18:35;;;;;;;0.30;0.30;;;22.90;99.90;;;;;;5030900;28;20641;-76
2022/08/15 07:21:08;;;;;;;0.30;0.30;;;23.00;58.50;;;;;;5030027;28;20617;-76
2022/08/15 07:23:35;;;;;;;0.30;0.30;;;23.30;1.00;;;;;;5030833;28;20234;-76
2022/08/15 07:26:11;;;;;;;0.30;0.30;;;23.30;1.00;;;;;;5030331;28;20652;-75
2022/08/15 07:28:42;;;;;;;0.30;0.30;;;23.10;1.00;;;;;;5030299;28;20179;-75
2022/08/15 07:31:15;;;;;;;0.30;0.30;;;22.90;1.00;;;;;;5029785;28;20218;-75
2022/08/15 07:33:45;;;;;;;0.30;0.30;;;22.90;1.00;;;;;;5029446;28;20898;-76
2022/08/15 07:36:19;;;;;;;0.30;0.30;;;23.00;1.00;;;;;;5029926;28;20564;-75
2022/08/15 07:38:45;;;;;;;0.30;0.30;;;23.20;1.00;;;;;;5028848;28;20229;-75
2022/08/15 07:41:27;;;;;;;0.30;0.30;;;23.30;1.00;;;;;;5029252;28;20191;-75
2022/08/15 07:44:17;;;;;;;0.30;0.30;;;23.20;1.00;;;;;;5030650;28;20545;-75
2022/08/15 07:46:52;;;;;;;0.27;0.27;;;23.20;1.00;;;;;;5018741;28;20184;-76
2022/08/15 07:49:23;;;;;;;0.30;0.30;;;23.40;1.00;;;;;;5029998;28;20266;-76
2022/08/15 07:51:57;;;;;;;0.40;0.40;;;24.40;1.00;;;;;;5029756;28;20179;-76
2022/08/15 07:54:47;;;;;;;0.47;0.47;;;25.00;1.00;;;;;;5021655;28;20696;-77
2022/08/15 07:57:24;;;;;;;0.30;0.30;;;26.10;1.00;;;;;;5033234;28;20187;-77
2022/08/15 08:00:09;;;;;;;0.40;0.40;;;26.10;1.00;;;;;;5032605;28;20597;-76
2022/08/15 08:02:53;;;;;;;0.40;0.40;;;26.40;1.00;;;;;;5023753;28;20210;-77
2022/08/15 08:05:21;;;;;;;0.40;0.40;;;27.40;1.00;;;;;;5029121;28;20364;-76
2022/08/15 08:07:50;;;;;;;0.60;0.60;;;27.90;1.00;;;;;;5033521;28;20188;-76
2022/08/15 08:10:39;;;;;;;0.57;0.57;;;27.70;1.00;;;;;;5029977;28;20207;-77
2022/08/15 08:13:20;;;;;;;0.47;0.47;;;25.80;1.00;;;;;;5026438;28;20200;-77
2022/08/15 08:15:54;;;;;;;0.40;0.40;;;25.00;1.00;;;;;;5026347;28;20737;-76
2022/08/15 08:18:43;;;;;;;0.30;0.30;;;24.60;1.00;;;;;;5023923;28;20267;-76
2022/08/15 08:21:13;;;;;;;0.47;0.47;;;24.90;1.00;;;;;;5025112;28;20187;-76
2022/08/15 08:23:46;;;;;;;0.40;0.40;;;26.20;1.00;;;;;;5027780;28;20200;-77
2022/08/15 08:26:35;;;;;;;0.50;0.50;;;27.00;1.00;;;;;;5033518;28;20171;-77
2022/08/15 08:29:33;;;;;;;0.70;0.70;;;27.80;1.00;;;;;;5034107;28;20180;-77
2022/08/15 08:32:21;;;;;;;0.50;0.50;;;27.90;1.00;;;;;;5034057;28;20186;-77
2022/08/15 08:35:15;;;;;;;0.50;0.50;;;27.80;1.00;;;;;;5033822;28;20199;-76
2022/08/15 08:37:59;;;;;;;0.60;0.60;;;27.30;1.00;;;;;;5023536;28;20176;-77
2022/08/15 08:44:27;;;;;;;0.43;0.43;;;27.90;1.00;;;;;;4919564;29;20225;-78
2022/08/15 08:47:16;;;;;;;0.43;0.43;;;27.70;1.00;;;;;;4934614;29;20187;-77
2022/08/15 08:50:29;;;;;;;0.50;0.50;;;27.90;1.00;;;;;;5010978;28;20267;-77
2022/08/15 08:53:11;;;;;;;0.50;0.50;;;27.70;1.00;;;;;;4946568;28;20211;-77
2022/08/15 08:55:49;;;;;;;0.40;0.40;;;28.90;1.00;;;;;;5031934;28;20203;-77
2022/08/15 08:58:31;;;;;;;0.60;0.60;;;28.90;1.00;;;;;;5033584;28;20187;-77
2022/08/15 09:00:58;;;;;;;0.28;0.28;;;28.50;1.00;;;;;;5032645;28;20253;-77
2022/08/15 09:03:29;;;;;;;0.50;0.50;;;28.30;1.00;;;;;;5032272;28;20297;-77
2022/08/15 09:05:58;;;;;;;0.52;0.52;;;28.40;1.00;;;;;;5033575;28;20180;-77
2022/08/15 09:08:36;;;;;;;0.40;0.40;;;29.10;1.00;;;;;;5032919;28;20176;-76
2022/08/15 09:11:09;;;;;;;0.40;0.40;;;29.50;1.00;;;;;;5032569;28;20264;-77
2022/08/15 09:13:43;;;;;;;0.20;0.20;;;29.80;1.00;;;;;;5032139;28;20208;-77
2022/08/15 09:16:14;;;;;;;0.40;0.40;;;28.00;1.00;;;;;;5031581;28;20180;-78
2022/08/15 09:18:59;;;;;;;0.60;0.60;;;27.30;1.00;;;;;;5032682;28;20181;-76
2022/08/15 09:21:25;;;;;;;0.70;0.70;;;28.10;1.00;;;;;;5030155;28;20184;-78
2022/08/15 09:23:50;;;;;;;0.60;0.60;;;28.60;1.00;;;;;;5032401;28;20200;-77
2022/08/15 09:26:40;;;;;;;0.43;0.43;;;27.80;1.00;;;;;;5032617;28;20271;-77
2022/08/15 09:29:22;;;;;;;0.63;0.63;;;28.10;1.00;;;;;;5033099;28;20191;-77
2022/08/15 09:32:09;;;;;;;0.60;0.60;;;28.30;1.00;;;;;;5033042;28;20191;-77
2022/08/15 09:34:55;;;;;;;0.50;0.50;;;29.90;1.00;;;;;;5022730;28;20216;-77
2022/08/15 09:38:05;;;;;;;0.50;0.50;;;29.80;1.00;;;;;;5032675;28;20188;-77
2022/08/15 09:40:58;;;;;;;0.60;0.60;;;28.80;1.00;;;;;;5031165;28;20187;-77
2022/08/15 09:43:36;;;;;;;0.40;0.40;;;29.40;1.00;;;;;;5032171;28;20568;-76
2022/08/15 09:46:39;;;;;;;0.52;0.52;;;29.10;1.00;;;;;;5029164;28;20200;-76
2022/08/15 09:49:32;;;;;;;0.63;0.63;;;28.10;1.00;;;;;;5022751;28;20367;-76
2022/08/15 09:52:22;;;;;;;0.60;0.60;;;27.10;1.00;;;;;;5024646;28;20568;-76
2022/08/15 09:54:54;;;;;;;0.63;0.63;;;28.80;1.00;;;;;;5032101;28;20207;-76
2022/08/15 09:57:45;;;;;;;0.50;0.50;;;29.10;1.00;;;;;;5032137;28;20187;-77
2022/08/15 10:00:16;;;;;;;0.50;0.50;;;29.50;1.00;;;;;;5031560;28;20183;-76
2022/08/15 10:02:45;;;;;;;0.50;0.50;;;29.70;1.00;;;;;;5031681;28;20207;-76
2022/08/15 10:05:24;;;;;;;0.57;0.57;;;29.80;1.00;;;;;;5031933;28;20180;-76
2022/08/15 10:08:01;;;;;;;0.50;0.50;;;30.80;1.00;;;;;;5032644;28;20188;-76
2022/08/15 10:10:32;;;;;;;0.50;0.50;;;31.20;1.00;;;;;;5031447;28;20167;-75
2022/08/15 10:13:07;;;;;;;0.50;0.50;;;31.70;1.00;;;;;;5031713;28;20190;-76
2022/08/15 10:15:47;;;;;;;0.60;0.60;;;29.90;1.00;;;;;;5031319;28;20618;-75
2022/08/15 10:18:21;;;;;;;0.40;0.40;;;31.10;1.00;;;;;;5032094;28;20544;-75
2022/08/15 10:20:51;;;;;;;0.50;0.50;;;32.30;1.00;;;;;;5031565;28;20258;-78
2022/08/15 10:23:20;;;;;;;0.30;0.30;;;33.00;1.00;;;;;;5031803;28;20199;-77
2022/08/15 10:25:47;;;;;;;0.40;0.40;;;32.60;1.00;;;;;;5031906;28;20273;-76
2022/08/15 10:28:14;;;;;;;0.52;0.52;;;32.70;1.00;;;;;;5031507;28;20660;-76
2022/08/15 10:30:48;;;;;;;0.40;0.40;;;33.10;1.00;;;;;;5031543;28;20180;-76
2022/08/15 10:33:30;;;;;;;0.28;0.28;;;33.20;1.00;;;;;;5031310;28;20591;-77
2022/08/15 10:36:14;;;;;;;0.30;0.30;;;33.30;1.00;;;;;;5031744;28;20673;-77
2022/08/15 10:38:50;;;;;;;0.20;0.20;;;33.80;1.00;;;;;;5031802;28;20213;-76
2022/08/15 10:41:40;;;;;;;0.30;0.30;;;34.10;1.00;;;;;;5031520;28;20225;-76
2022/08/15 10:44:42;;;;;;;0.30;0.30;;;33.80;1.00;;;;;;5031670;28;20249;-76
2022/08/15 10:47:23;;;;;;;0.50;0.50;;;31.00;1.00;;;;;;5031543;28;20183;-76
2022/08/15 10:50:08;;;;;;;0.57;0.57;;;32.00;1.00;;;;;;5030926;28;20241;-77
2022/08/15 10:52:50;;;;;;;0.50;0.50;;;32.60;1.00;;;;;;5031814;28;20259;-76
2022/08/15 10:55:27;;;;;;;0.60;0.60;;;33.60;1.00;;;;;;5031754;28;20207;-77
2022/08/15 10:58:09;;;;;;;0.55;0.55;;;34.20;1.00;;;;;;5032228;28;20178;-77
2022/08/15 11:00:47;;;;;;;0.40;0.40;;;33.90;1.00;;;;;;5030966;28;20184;-76
2022/08/15 11:03:29;;;;;;;0.40;0.40;;;33.70;1.00;;;;;;5031214;28;20300;-77
2022/08/15 11:06:02;;;;;;;0.30;0.30;;;34.50;1.00;;;;;;5031408;28;20258;-76
2022/08/15 11:08:28;;;;;;;0.60;0.60;;;33.70;1.00;;;;;;5031295;28;20171;-75
2022/08/15 11:11:00;;;;;;;0.30;0.30;;;32.30;1.00;;;;;;5030657;28;20671;-77
2022/08/15 11:13:31;;;;;;;0.40;0.40;;;31.30;1.00;;;;;;5031271;28;20202;-77
2022/08/15 11:16:07;;;;;;;0.60;0.60;;;32.00;1.00;;;;;;5024999;28;20197;-76
2022/08/15 11:18:36;;;;;;;0.40;0.40;;;31.80;1.00;;;;;;5028164;28;20187;-77
2022/08/15 11:21:17;;;;;;;0.52;0.52;;;32.50;1.00;;;;;;5030541;28;20270;-77
2022/08/15 11:23:49;;;;;;;0.60;0.60;;;33.00;1.00;;;;;;5030528;28;20199;-78
2022/08/15 11:26:22;;;;;;;0.43;0.43;;;33.70;1.00;;;;;;5025765;28;20181;-77
2022/08/15 11:28:55;;;;;;;0.50;0.50;;;33.00;1.00;;;;;;5034122;28;20185;-77
2022/08/15 11:31:20;;;;;;;0.40;0.40;;;33.30;1.00;;;;;;5033941;28;20195;-77
2022/08/15 11:33:49;;;;;;;0.40;0.40;;;33.50;1.00;;;;;;5033745;28;20206;-77
2022/08/15 11:36:16;;;;;;;0.30;0.30;;;34.00;1.00;;;;;;5023120;28;20176;-75
2022/08/15 11:38:46;;;;;;;0.35;0.35;;;34.00;1.00;;;;;;5034607;28;20658;-77
2022/08/15 11:41:26;;;;;;;0.40;0.40;;;32.50;1.00;;;;;;5033780;28;20193;-76
2022/08/15 11:43:52;;;;;;;0.57;0.57;;;31.00;1.00;;;;;;5030257;28;20786;-76
2022/08/15 11:46:21;;;;;;;0.60;0.60;;;31.70;1.00;;;;;;5033917;28;20183;-76
2022/08/15 11:48:52;;;;;;;0.40;0.40;;;32.60;1.00;;;;;;5033896;28;20642;-77
2022/08/15 11:51:21;;;;;;;0.40;0.40;;;33.10;1.00;;;;;;5029846;28;20273;-76
2022/08/15 11:54:11;;;;;;;0.60;0.60;;;33.10;1.00;;;;;;5034361;28;20220;-77
2022/08/15 11:56:49;;;;;;;0.40;0.40;;;33.20;1.00;;;;;;5034482;28;20297;-77
2022/08/15 11:59:31;;;;;;;0.40;0.40;;;33.60;1.00;;;;;;5037691;28;20178;-76
2022/08/15 12:02:27;;;;;;;0.30;0.30;;;33.50;1.00;;;;;;5035400;28;20529;-76
2022/08/15 12:04:52;;;;;;;0.25;0.25;;;33.50;1.00;;;;;;5037890;28;20233;-77
2022/08/15 12:07:26;;;;;;;0.35;0.35;;;32.80;1.00;;;;;;5055537;28;20176;-75
2022/08/15 12:10:17;;;;;;;0.25;0.25;;;32.30;1.00;;;;;;5056757;28;20197;-75
2022/08/15 12:12:49;;;;;;;0.50;0.50;;;31.20;1.00;;;;;;5057509;28;20200;-76
2022/08/15 12:15:22;;;;;;;0.60;0.60;;;30.30;1.00;;;;;;5058029;28;20266;-77
2022/08/15 12:18:03;;;;;;;0.52;0.52;;;29.60;1.00;;;;;;5057744;28;20168;-77
2022/08/15 12:20:34;;;;;;;0.40;0.40;;;29.70;1.00;;;;;;5058198;28;20235;-78
2022/08/15 12:23:27;;;;;;;0.57;0.57;;;29.40;1.00;;;;;;5058368;28;20244;-77
2022/08/15 12:25:55;;;;;;;0.70;0.70;;;29.10;1.00;;;;;;5057643;28;20175;-77
2022/08/15 12:28:21;;;;;;;0.67;0.67;;;29.10;1.00;;;;;;5058130;28;20192;-77
2022/08/15 12:30:47;;;;;;;0.50;0.50;;;29.70;1.00;;;;;;5057093;28;20235;-77
2022/08/15 12:33:14;;;;;;;0.57;0.57;;;29.50;1.00;;;;;;5059018;28;20202;-76
2022/08/15 12:35:40;;;;;;;0.50;0.50;;;29.10;1.00;;;;;;5053961;28;20208;-77
2022/08/15 12:38:05;;;;;;;0.60;0.60;;;28.90;1.00;;;;;;5054763;28;20168;-75
2022/08/15 12:40:31;;;;;;;0.47;0.47;;;28.80;1.00;;;;;;5058017;28;20207;-78
2022/08/15 12:42:57;;;;;;;0.60;0.60;;;28.70;1.00;;;;;;5054998;28;20200;-79
2022/08/15 12:45:22;;;;;;;0.50;0.50;;;28.70;1.00;;;;;;5037672;28;20194;-78
2022/08/15 12:47:49;;;;;;;0.47;0.47;;;29.50;1.00;;;;;;5037923;28;20173;-79
2022/08/15 12:50:14;;;;;;;0.57;0.57;;;30.30;1.00;;;;;;5036052;28;20194;-79
2022/08/15 12:52:41;;;;;;;0.50;0.50;;;30.60;1.00;;;;;;5038240;28;20263;-78
2022/08/15 12:55:09;;;;;;;0.60;0.60;;;31.10;1.00;;;;;;5034409;28;20215;-77
2022/08/15 12:57:35;;;;;;;0.40;0.40;;;31.20;1.00;;;;;;5032086;28;20216;-77
2022/08/15 13:00:01;;;;;;;0.60;0.60;;;30.90;1.00;;;;;;5033363;28;20204;-78
2022/08/15 13:02:26;;;;;;;0.60;0.60;;;31.40;1.00;;;;;;5033653;28;20210;-78
2022/08/15 13:04:55;;;;;;;0.70;0.70;;;31.00;1.00;;;;;;5032533;28;20184;-78
2022/08/15 13:07:22;;;;;;;0.52;0.52;;;31.10;1.00;;;;;;5032621;28;20187;-77
2022/08/15 13:09:48;;;;;;;0.50;0.50;;;30.40;1.00;;;;;;5031602;28;20275;-78
2022/08/15 13:12:15;;;;;;;0.50;0.50;;;29.80;1.00;;;;;;5032230;28;20342;-78
2022/08/15 13:14:41;;;;;;;0.52;0.52;;;29.40;1.00;;;;;;5032467;28;20656;-77
2022/08/15 13:17:07;;;;;;;0.50;0.50;;;29.40;1.00;;;;;;5032238;28;20549;-78
2022/08/15 13:25:12;;;;;;;0.50;0.50;;;29.10;1.00;;;;;;5031995;28;20190;-76
2022/08/15 13:27:38;;;;;;;0.50;0.50;;;29.50;1.00;;;;;;5031645;28;20290;-77
2022/08/15 13:30:10;;;;;;;0.47;0.47;;;30.00;1.00;;;;;;5031711;28;20568;-77
2022/08/15 13:32:36;;;;;;;0.50;0.50;;;29.90;1.00;;;;;;5030086;28;20184;-77
2022/08/15 13:35:05;;;;;;;0.50;0.50;;;30.10;1.00;;;;;;5033268;28;20214;-77
2022/08/15 13:37:30;;;;;;;0.50;0.50;;;30.00;1.00;;;;;;5032447;28;20176;-78
2022/08/15 13:39:56;;;;;;;0.50;0.50;;;30.40;1.00;;;;;;5031424;28;20807;-78
2022/08/15 13:42:25;;;;;;;0.50;0.50;;;30.40;1.00;;;;;;5032039;28;20227;-78